Overview Statistics Trail Chart Weather Telemetry Raw packets
 

This is the latest recevied weather packets stored in our database for station/object KA1BMF-13. If no packets are shown the sender has not sent any weather packets the latest 10 day(s).

<< 38 39 40 41 42 43 44 >>
Time Temp. Humidity Pressure Rain* Wind** Luminosity Snow
1787930718 26.11° C 78% 1016.2 hPa 0 mm - 279 W/m² -
1787930119 25.56° C 79% 1016.2 hPa 0 mm - 457 W/m² -
1787929519 25.56° C 78% 1016.3 hPa 0 mm - 371 W/m² -
1787928916 25.56° C 82% 1016.2 hPa 0 mm - 499 W/m² -
1787928320 25° C 83% 1016.2 hPa 0 mm - 306 W/m² -
1787927720 25° C 85% 1016 hPa 0 mm - 317 W/m² -
1787927120 24.44° C 88% 1015.9 hPa 0 mm - 279 W/m² -
1787926517 24.44° C 87% 1016.1 hPa 0 mm - 234 W/m² -
1787925917 23.89° C 88% 1015.9 hPa 0 mm - 230 W/m² -
1787925317 23.89° C 88% 1015.9 hPa 0 mm - 224 W/m² -
1787924721 23.89° C 88% 1015.7 hPa 0 mm - 375 W/m² -
1787924121 23.33° C 90% 1015.7 hPa 0 mm - 450 W/m² -
1787923521 23.33° C 90% 1015.8 hPa 0 mm - 218 W/m² -
1787922921 23.33° C 91% 1015.8 hPa 0 mm - 162 W/m² -
1787922321 23.33° C 92% 1015.8 hPa 0 mm - 122 W/m² -
1787921722 22.78° C 94% 1015.6 hPa 0 mm - 248 W/m² -
1787921122 22.22° C 97% 1015.7 hPa 0 mm - 173 W/m² -
1787920522 22.22° C 98% 1015.8 hPa 0 mm - 122 W/m² -
1787919922 22.22° C 99% 1015.6 hPa 0 mm - 154 W/m² -
1787919323 22.22° C 100% 1015.6 hPa 0 mm - 145 W/m² -
1787918722 22.22° C 100% 1015.6 hPa 0 mm - 164 W/m² -
1787918122 22.22° C 100% 1015.5 hPa 0 mm - 113 W/m² -
1787917523 21.67° C 100% 1015.5 hPa 0 mm - 77 W/m² -
1787916923 21.67° C 100% 1015.4 hPa 0 mm - 56 W/m² -
1787916323 21.67° C 100% 1015.3 hPa 0 mm - 54 W/m² -

* Rain latest hour (hover to see other rain measurements)
** Current wind speed in m/s (hover to see current wind gust speed)